Terminal Aerodrome Forecast
Issued by NWS Albany, NY

Home | Current Version | Previous Version | Text Only | Print | Product List | Glossary On
Versions: 1 2 3 4 5 6 7 8 9 10 11 12 13 14 15 16 17 18 19 20 21 22 23 24 25 26 27 28 29 30 31 32 33 34 35
000
FTUS41 KALY 040211 AAB
TAFALB
TAF AMD
KALB 040211Z 0402/0424 18004KT P6SM VCSH BKN025 BKN035 OVC040
     FM040300 16003KT P6SM SCT015 OVC025
     FM040700 VRB02KT P6SM VCSH SCT008 OVC015
     FM041400 VRB05KT 3SM -SHRA OVC025=

USA.gov is the U.S. government's official web portal to all federal, state and local government web resources and services.